Time;durP1;ratioP1;P1;durP2;ratioP2;P2;SDS_P1;SDS_P2;PMS_P1;PMS_P2;Temp;Humidity;BMP_temperature;BMP_pressure;BME280_temperature;BME280_humidity;BME280_pressure;Samples;Min_cycle;Max_cycle;Signal;HPM_P1;HPM_P2
2021/07/26 00:01:26;;;;;;;1.73;1.63;;;26.50;54.30;;;;;;5054796;28;20033;-64
2021/07/26 00:03:52;;;;;;;1.90;1.80;;;26.60;54.30;;;;;;5054216;28;20463;-64
2021/07/26 00:06:18;;;;;;;1.58;1.48;;;26.50;54.30;;;;;;5054671;28;20421;-64
2021/07/26 00:08:43;;;;;;;1.58;1.48;;;26.50;54.30;;;;;;5053620;28;20550;-64
2021/07/26 00:11:11;;;;;;;2.40;1.90;;;26.50;54.30;;;;;;5054385;28;20096;-64
2021/07/26 00:13:38;;;;;;;2.20;1.80;;;26.50;54.40;;;;;;5036568;28;20119;-63
2021/07/26 00:16:06;;;;;;;2.22;1.63;;;26.50;54.40;;;;;;5037262;28;20108;-64
2021/07/26 00:18:32;;;;;;;2.00;1.67;;;26.50;54.40;;;;;;5037319;28;20418;-63
2021/07/26 00:20:59;;;;;;;2.00;1.80;;;26.50;54.40;;;;;;5036730;28;20025;-63
2021/07/26 00:23:26;;;;;;;1.80;1.55;;;26.50;54.40;;;;;;5054472;28;20025;-65
2021/07/26 00:25:52;;;;;;;1.95;1.80;;;26.50;54.40;;;;;;5054606;28;20440;-64
2021/07/26 00:28:18;;;;;;;1.75;1.65;;;26.50;54.40;;;;;;5054001;28;20037;-64
2021/07/26 00:30:44;;;;;;;2.17;1.95;;;26.50;54.40;;;;;;5035375;28;20053;-64
2021/07/26 00:34:04;;;;;;;2.13;1.88;;;26.50;54.40;;;;;;5054099;28;20043;-64
2021/07/26 00:36:31;;;;;;;1.88;1.67;;;26.50;54.40;;;;;;5033064;28;20541;-65
2021/07/26 00:38:57;;;;;;;1.63;1.45;;;26.40;54.30;;;;;;5054026;28;20032;-64
2021/07/26 00:41:23;;;;;;;2.03;1.65;;;26.40;54.30;;;;;;5054324;28;20056;-64
2021/07/26 00:43:50;;;;;;;2.00;1.80;;;26.40;54.30;;;;;;5053771;28;20401;-65
2021/07/26 00:46:16;;;;;;;2.50;1.90;;;26.40;54.30;;;;;;5053906;28;20033;-62
2021/07/26 00:48:44;;;;;;;2.17;1.85;;;26.40;54.30;;;;;;5053792;28;20021;-63
2021/07/26 00:51:10;;;;;;;2.25;1.83;;;26.40;54.30;;;;;;5035447;28;20040;-64
2021/07/26 00:53:36;;;;;;;2.15;1.80;;;26.40;54.30;;;;;;5053994;28;20053;-64
2021/07/26 00:56:02;;;;;;;1.83;1.65;;;26.40;54.20;;;;;;5053852;28;20036;-64
2021/07/26 00:58:28;;;;;;;2.00;1.60;;;26.40;54.20;;;;;;5035957;28;20078;-64
2021/07/26 01:00:55;;;;;;;2.08;1.80;;;26.40;54.20;;;;;;5053596;28;20059;-64
2021/07/26 01:03:21;;;;;;;2.17;1.88;;;26.40;54.20;;;;;;5053468;28;20038;-63
2021/07/26 01:05:47;;;;;;;2.08;1.60;;;26.40;54.20;;;;;;5035724;28;20131;-63
2021/07/26 01:08:13;;;;;;;2.42;1.90;;;26.40;54.20;;;;;;5054068;28;20492;-63
2021/07/26 01:10:39;;;;;;;1.70;1.60;;;26.40;54.10;;;;;;5054033;28;20098;-64
2021/07/26 01:13:05;;;;;;;1.80;1.70;;;26.30;54.10;;;;;;5053965;28;20033;-64
2021/07/26 01:15:31;;;;;;;1.83;1.60;;;26.30;54.00;;;;;;5052912;28;20036;-63
2021/07/26 01:18:15;;;;;;;1.70;1.60;;;26.30;54.10;;;;;;5053543;28;20112;-64
2021/07/26 01:20:41;;;;;;;2.03;1.80;;;26.30;54.00;;;;;;5053319;28;20032;-64
2021/07/26 01:23:08;;;;;;;1.67;1.50;;;26.30;54.00;;;;;;5052584;28;20033;-64
2021/07/26 01:25:38;;;;;;;2.00;1.58;;;26.30;54.00;;;;;;5036299;28;20111;-63
2021/07/26 01:28:04;;;;;;;1.65;1.55;;;26.30;54.00;;;;;;5053351;28;20090;-63
2021/07/26 01:30:31;;;;;;;2.00;1.80;;;26.30;54.00;;;;;;5054028;28;20024;-63
2021/07/26 01:32:58;;;;;;;1.77;1.63;;;26.30;53.90;;;;;;5035310;28;20384;-63
2021/07/26 01:35:24;;;;;;;2.55;1.63;;;26.30;53.90;;;;;;5050222;28;20402;-63
2021/07/26 01:37:50;;;;;;;1.65;1.52;;;26.30;53.90;;;;;;5053745;28;20032;-63
2021/07/26 01:40:16;;;;;;;2.05;1.58;;;26.30;53.80;;;;;;5053515;28;20029;-68
2021/07/26 01:42:43;;;;;;;1.92;1.60;;;26.30;53.80;;;;;;5052856;28;20171;-64
2021/07/26 01:45:10;;;;;;;1.70;1.50;;;26.30;53.80;;;;;;5052842;28;20391;-63
2021/07/26 01:48:02;;;;;;;1.67;1.55;;;26.30;53.80;;;;;;5035244;28;20059;-63
2021/07/26 01:50:35;;;;;;;1.50;1.40;;;26.30;53.80;;;;;;4987367;28;20060;-64
2021/07/26 01:53:01;;;;;;;1.65;1.50;;;26.30;53.80;;;;;;5052602;28;20044;-63
2021/07/26 01:55:26;;;;;;;1.75;1.60;;;26.30;53.80;;;;;;5052570;28;20024;-62
2021/07/26 01:57:53;;;;;;;2.05;1.55;;;26.20;53.70;;;;;;5052328;28;20120;-62
2021/07/26 02:00:19;;;;;;;1.80;1.70;;;26.30;53.70;;;;;;5052610;28;20724;-63
2021/07/26 02:02:45;;;;;;;1.92;1.73;;;26.20;53.70;;;;;;5034949;28;20056;-63
2021/07/26 02:05:12;;;;;;;2.05;1.67;;;26.20;53.70;;;;;;5033928;28;20095;-64
2021/07/26 02:07:37;;;;;;;1.63;1.40;;;26.20;53.70;;;;;;5051622;28;20064;-64
2021/07/26 02:10:04;;;;;;;1.65;1.55;;;26.20;53.60;;;;;;5053225;28;20435;-63
2021/07/26 02:12:29;;;;;;;2.35;1.73;;;26.20;53.60;;;;;;5052324;28;20041;-66
2021/07/26 02:14:55;;;;;;;1.50;1.40;;;26.20;53.60;;;;;;5052848;28;20035;-65
2021/07/26 02:17:21;;;;;;;2.22;1.83;;;26.20;53.60;;;;;;5052450;28;20032;-65
2021/07/26 02:19:47;;;;;;;1.63;1.52;;;26.20;53.60;;;;;;5052708;28;20022;-64
2021/07/26 02:22:13;;;;;;;1.52;1.40;;;26.20;53.50;;;;;;5051872;28;20043;-63
2021/07/26 02:24:38;;;;;;;1.95;1.48;;;26.20;53.50;;;;;;5052507;28;20100;-64
2021/07/26 02:27:04;;;;;;;1.92;1.52;;;26.20;53.50;;;;;;5051395;28;20057;-64
2021/07/26 02:29:32;;;;;;;1.80;1.70;;;26.20;53.50;;;;;;5053065;28;20037;-64
2021/07/26 02:31:58;;;;;;;1.77;1.55;;;26.20;53.50;;;;;;5034372;28;20041;-63
2021/07/26 02:34:24;;;;;;;1.63;1.50;;;26.20;53.50;;;;;;5051871;28;20413;-63
2021/07/26 02:36:50;;;;;;;2.10;1.75;;;26.20;53.40;;;;;;5052009;28;20021;-63
2021/07/26 02:39:16;;;;;;;2.03;1.55;;;26.10;53.30;;;;;;5051124;28;20028;-63
2021/07/26 02:41:43;;;;;;;1.80;1.40;;;26.20;53.40;;;;;;5051788;28;20403;-64
2021/07/26 02:44:09;;;;;;;1.92;1.30;;;26.10;53.30;;;;;;5052269;28;20036;-65
2021/07/26 02:46:35;;;;;;;1.80;1.65;;;26.10;53.30;;;;;;5052079;28;20137;-64
2021/07/26 02:49:00;;;;;;;1.70;1.60;;;26.10;53.20;;;;;;5033362;28;20114;-63
2021/07/26 02:51:26;;;;;;;2.67;1.45;;;26.10;53.20;;;;;;5052693;28;20079;-62
2021/07/26 02:53:52;;;;;;;1.52;1.40;;;26.10;53.20;;;;;;5052505;28;20076;-64
2021/07/26 02:56:18;;;;;;;1.50;1.40;;;26.10;53.20;;;;;;5034850;28;20306;-63
2021/07/26 02:58:44;;;;;;;1.80;1.48;;;26.10;53.20;;;;;;5033756;28;20032;-65
2021/07/26 03:01:12;;;;;;;2.03;1.65;;;26.10;53.20;;;;;;5052363;28;20024;-63
2021/07/26 03:03:39;;;;;;;2.20;1.65;;;26.10;53.20;;;;;;5033958;28;20110;-62
2021/07/26 03:06:12;;;;;;;1.75;1.50;;;26.10;53.20;;;;;;5053096;28;20040;-63
2021/07/26 03:08:38;;;;;;;1.40;1.30;;;26.10;53.20;;;;;;5052376;28;20029;-63
2021/07/26 03:11:08;;;;;;;2.42;1.75;;;26.10;53.20;;;;;;5053268;28;20444;-63
2021/07/26 03:13:34;;;;;;;2.13;1.77;;;26.10;53.30;;;;;;5052864;28;20048;-64
2021/07/26 03:16:05;;;;;;;1.55;1.45;;;26.10;53.20;;;;;;5053204;28;20032;-62
2021/07/26 03:18:31;;;;;;;1.40;1.30;;;26.10;53.20;;;;;;5052813;28;20171;-63
2021/07/26 03:20:56;;;;;;;1.63;1.48;;;26.10;53.20;;;;;;5053033;28;20104;-62
2021/07/26 03:23:22;;;;;;;1.40;1.30;;;26.10;53.30;;;;;;5035700;28;20425;-63
2021/07/26 03:25:48;;;;;;;1.40;1.30;;;26.10;53.20;;;;;;5035326;28;20444;-62
2021/07/26 03:28:13;;;;;;;1.60;1.45;;;26.10;53.20;;;;;;5036085;28;20051;-63
2021/07/26 03:30:39;;;;;;;1.40;1.30;;;26.00;53.10;;;;;;5052727;28;20139;-62
2021/07/26 03:33:06;;;;;;;1.67;1.30;;;26.00;53.20;;;;;;5052707;28;20460;-63
2021/07/26 03:35:32;;;;;;;2.72;1.70;;;26.00;53.20;;;;;;5051664;28;20460;-62
2021/07/26 03:37:58;;;;;;;1.50;1.40;;;26.00;53.20;;;;;;5054760;28;20060;-63
2021/07/26 03:40:24;;;;;;;1.50;1.40;;;26.00;53.20;;;;;;5056307;28;20029;-63
2021/07/26 03:42:50;;;;;;;1.48;1.38;;;26.00;53.20;;;;;;5057122;28;20021;-62
2021/07/26 03:45:19;;;;;;;1.85;1.35;;;26.00;53.20;;;;;;5055333;28;20510;-62
2021/07/26 03:47:45;;;;;;;1.55;1.45;;;26.00;53.20;;;;;;5055638;28;20428;-63
2021/07/26 03:50:13;;;;;;;1.60;1.33;;;25.90;53.10;;;;;;5056327;28;20025;-64
2021/07/26 03:52:45;;;;;;;1.13;1.05;;;26.00;53.20;;;;;;5056583;28;20048;-63
2021/07/26 03:55:15;;;;;;;1.40;1.27;;;26.00;53.20;;;;;;5038033;28;20032;-64
2021/07/26 03:57:41;;;;;;;1.30;1.20;;;26.00;53.30;;;;;;5038454;28;20344;-63
2021/07/26 04:00:07;;;;;;;1.48;1.30;;;25.90;53.20;;;;;;5037975;28;20021;-63
2021/07/26 04:02:39;;;;;;;1.48;1.38;;;25.90;53.20;;;;;;5055247;28;20041;-63
2021/07/26 04:05:10;;;;;;;1.45;1.27;;;25.90;53.20;;;;;;5038489;28;20097;-63
2021/07/26 04:07:38;;;;;;;1.75;1.38;;;25.90;53.30;;;;;;5048075;28;20088;-63
2021/07/26 04:10:07;;;;;;;1.55;1.38;;;25.90;53.30;;;;;;5056622;28;20422;-62
2021/07/26 04:12:34;;;;;;;1.27;1.17;;;25.90;53.20;;;;;;5038239;28;20427;-63
2021/07/26 04:15:07;;;;;;;1.20;1.10;;;25.90;53.30;;;;;;5056141;28;20025;-63
2021/07/26 04:17:33;;;;;;;1.98;1.52;;;25.90;53.30;;;;;;5056113;28;20033;-62
2021/07/26 04:19:59;;;;;;;1.65;1.38;;;25.90;53.30;;;;;;5038001;28;20039;-62
2021/07/26 04:22:24;;;;;;;1.23;1.13;;;25.90;53.20;;;;;;5038340;28;20037;-64
2021/07/26 04:24:50;;;;;;;1.52;1.38;;;25.90;53.30;;;;;;5055330;28;20025;-62
2021/07/26 04:27:16;;;;;;;1.52;1.20;;;25.90;53.30;;;;;;5056407;28;20056;-63
2021/07/26 04:29:42;;;;;;;1.50;1.13;;;25.90;53.20;;;;;;5055678;28;20103;-63
2021/07/26 04:32:10;;;;;;;1.45;1.30;;;25.90;53.30;;;;;;5055595;28;20363;-64
2021/07/26 04:34:36;;;;;;;1.38;1.27;;;25.90;53.30;;;;;;5054429;28;20025;-64
2021/07/26 04:37:02;;;;;;;1.35;1.25;;;25.90;53.30;;;;;;5054355;28;20044;-62
2021/07/26 04:39:28;;;;;;;1.38;1.23;;;25.90;53.40;;;;;;5037993;28;20037;-63
2021/07/26 04:41:54;;;;;;;1.30;1.20;;;25.90;53.40;;;;;;5055429;28;20028;-63
2021/07/26 04:44:19;;;;;;;2.35;1.25;;;25.90;53.40;;;;;;5055136;28;20028;-64
2021/07/26 04:46:45;;;;;;;2.00;1.80;;;25.90;53.40;;;;;;5055080;28;20045;-63
2021/07/26 04:49:11;;;;;;;2.45;1.55;;;25.90;53.40;;;;;;5054043;28;20025;-63
2021/07/26 04:51:37;;;;;;;1.65;1.30;;;25.90;53.40;;;;;;5054985;28;20506;-63
2021/07/26 04:54:02;;;;;;;1.15;1.05;;;25.90;53.40;;;;;;5054861;28;20025;-62
2021/07/26 04:56:28;;;;;;;1.70;1.30;;;25.90;53.40;;;;;;5054971;28;20036;-63
2021/07/26 04:58:54;;;;;;;1.83;1.23;;;25.80;53.30;;;;;;5054890;28;20125;-64
2021/07/26 05:01:20;;;;;;;1.90;1.38;;;25.90;53.40;;;;;;5034929;28;20441;-64
2021/07/26 05:03:46;;;;;;;1.70;1.23;;;25.90;53.50;;;;;;5054204;28;20029;-62
2021/07/26 05:06:11;;;;;;;1.33;1.20;;;25.90;53.40;;;;;;5054611;28;20490;-63
2021/07/26 05:08:37;;;;;;;1.13;1.02;;;25.90;53.40;;;;;;5054040;28;20514;-62
2021/07/26 05:11:03;;;;;;;1.13;0.93;;;25.80;53.40;;;;;;5055189;28;20033;-63
2021/07/26 05:13:29;;;;;;;1.63;1.40;;;25.80;53.40;;;;;;5036397;28;20037;-63
2021/07/26 05:15:54;;;;;;;1.60;1.17;;;25.90;53.50;;;;;;5055511;28;20086;-62
2021/07/26 05:18:20;;;;;;;1.27;1.10;;;25.90;53.50;;;;;;5053011;28;20039;-63
2021/07/26 05:20:46;;;;;;;2.20;1.10;;;25.90;53.60;;;;;;5055046;28;20115;-64
2021/07/26 05:23:12;;;;;;;1.58;1.30;;;25.90;53.50;;;;;;5054587;28;20029;-63
2021/07/26 05:25:45;;;;;;;1.63;1.23;;;25.90;53.50;;;;;;5054790;28;20017;-63
2021/07/26 05:28:14;;;;;;;1.38;1.23;;;25.90;53.50;;;;;;5054525;28;20044;-62
2021/07/26 05:30:40;;;;;;;1.63;1.30;;;25.90;53.50;;;;;;5054340;28;20033;-63
2021/07/26 05:33:06;;;;;;;1.65;1.27;;;25.90;53.50;;;;;;5039172;28;20047;-63
2021/07/26 05:35:32;;;;;;;1.77;1.45;;;25.90;53.50;;;;;;5036714;28;20021;-63
2021/07/26 05:38:03;;;;;;;1.27;1.17;;;25.90;53.50;;;;;;5053556;28;20090;-63
2021/07/26 05:40:29;;;;;;;1.33;1.00;;;25.90;53.50;;;;;;5054782;28;20056;-63
2021/07/26 05:42:55;;;;;;;1.38;1.25;;;25.90;53.50;;;;;;5054158;28;20061;-63
2021/07/26 05:45:20;;;;;;;1.27;1.08;;;25.90;53.50;;;;;;5054335;28;20113;-64
2021/07/26 05:47:50;;;;;;;1.90;1.40;;;25.90;53.50;;;;;;5053370;28;20025;-62
2021/07/26 05:50:16;;;;;;;1.10;1.00;;;25.90;53.50;;;;;;5054058;28;20040;-64
2021/07/26 05:52:42;;;;;;;1.73;1.40;;;25.90;53.40;;;;;;5054128;28;20029;-61
2021/07/26 05:55:08;;;;;;;2.17;1.25;;;25.90;53.40;;;;;;5053958;28;20048;-63
2021/07/26 05:57:37;;;;;;;1.45;1.35;;;25.90;53.40;;;;;;5054626;28;20318;-62
2021/07/26 06:00:09;;;;;;;1.38;1.20;;;25.90;53.40;;;;;;5053412;28;20099;-63
2021/07/26 06:02:35;;;;;;;1.60;1.30;;;25.90;53.40;;;;;;5051876;28;20461;-63
2021/07/26 06:05:00;;;;;;;1.48;1.33;;;25.90;53.40;;;;;;5053655;28;20047;-63
2021/07/26 06:07:26;;;;;;;1.40;1.20;;;26.00;53.40;;;;;;5035932;28;20021;-63
2021/07/26 06:09:52;;;;;;;2.08;1.35;;;25.90;53.40;;;;;;5053594;28;20044;-63
2021/07/26 06:12:18;;;;;;;1.58;1.20;;;25.90;53.40;;;;;;5054048;28;20475;-64
2021/07/26 06:14:43;;;;;;;2.00;1.40;;;25.90;53.40;;;;;;5027298;28;20041;-63
2021/07/26 06:17:09;;;;;;;1.73;1.50;;;25.90;53.40;;;;;;5050844;28;20025;-62
2021/07/26 06:19:35;;;;;;;1.23;1.10;;;25.90;53.40;;;;;;5053870;28;20033;-63
2021/07/26 06:22:01;;;;;;;1.90;1.60;;;26.00;53.50;;;;;;5036151;28;20436;-63
2021/07/26 06:24:27;;;;;;;2.22;1.60;;;26.00;53.50;;;;;;5035813;28;20115;-62
2021/07/26 06:26:55;;;;;;;2.13;1.35;;;26.00;53.50;;;;;;5052429;28;20037;-64
2021/07/26 06:29:25;;;;;;;1.55;1.20;;;26.00;53.50;;;;;;5053768;28;20170;-62
2021/07/26 06:31:51;;;;;;;1.75;1.30;;;26.00;53.50;;;;;;5053333;28;20133;-63
2021/07/26 06:34:17;;;;;;;1.90;1.40;;;26.00;53.50;;;;;;5048583;28;20889;-64
2021/07/26 06:36:44;;;;;;;1.45;1.27;;;25.90;53.50;;;;;;5049940;28;20110;-63
2021/07/26 06:39:09;;;;;;;3.03;1.35;;;26.00;53.60;;;;;;5052815;28;20029;-63
2021/07/26 06:41:36;;;;;;;1.38;1.25;;;26.00;53.60;;;;;;5053492;28;20044;-62
2021/07/26 06:44:03;;;;;;;1.63;1.40;;;26.00;53.60;;;;;;5021425;28;20044;-62
2021/07/26 06:46:29;;;;;;;1.45;1.30;;;26.00;53.60;;;;;;5044343;28;20110;-65
2021/07/26 06:48:55;;;;;;;1.35;1.25;;;26.00;53.70;;;;;;5051764;28;20025;-63
2021/07/26 06:51:22;;;;;;;1.70;1.52;;;26.00;53.80;;;;;;5052331;28;20401;-64
2021/07/26 06:53:48;;;;;;;4.03;1.67;;;26.00;53.80;;;;;;5035664;28;20041;-63
2021/07/26 06:56:14;;;;;;;1.73;1.50;;;26.10;53.90;;;;;;5053382;28;20033;-62
2021/07/26 06:58:41;;;;;;;1.73;1.60;;;26.10;53.80;;;;;;5053352;28;20031;-61
2021/07/26 07:01:14;;;;;;;1.30;1.17;;;26.10;53.80;;;;;;5052619;28;20025;-65
2021/07/26 07:03:42;;;;;;;1.95;1.35;;;26.10;53.70;;;;;;5053373;28;20021;-63
2021/07/26 07:06:15;;;;;;;1.77;1.50;;;26.20;53.80;;;;;;5034871;28;20041;-63
2021/07/26 07:08:42;;;;;;;1.95;1.50;;;26.20;53.60;;;;;;5033300;28;20077;-63
2021/07/26 07:11:10;;;;;;;3.85;1.35;;;26.20;53.50;;;;;;5050068;28;20033;-62
2021/07/26 07:13:39;;;;;;;5.05;1.50;;;26.30;53.50;;;;;;5051799;28;20474;-64
2021/07/26 07:16:11;;;;;;;1.60;1.50;;;26.30;53.40;;;;;;5056068;28;20036;-63
2021/07/26 07:18:38;;;;;;;1.85;1.38;;;26.30;53.30;;;;;;5032864;28;20224;-62
2021/07/26 07:21:05;;;;;;;1.50;1.40;;;26.30;53.30;;;;;;5053809;28;20056;-64
2021/07/26 07:23:31;;;;;;;1.60;1.30;;;26.30;53.20;;;;;;5056525;28;20029;-64
2021/07/26 07:25:57;;;;;;;1.45;1.30;;;26.30;53.20;;;;;;5055932;28;20021;-64
2021/07/26 07:28:23;;;;;;;1.40;1.23;;;26.30;53.10;;;;;;5055926;28;20039;-64
2021/07/26 07:30:49;;;;;;;1.65;1.40;;;26.30;53.10;;;;;;5055980;28;20025;-64
2021/07/26 07:33:14;;;;;;;2.47;1.23;;;26.40;53.10;;;;;;5056168;28;20139;-63
2021/07/26 07:35:40;;;;;;;2.58;1.50;;;26.40;53.10;;;;;;5055127;28;20040;-64
2021/07/26 07:38:08;;;;;;;1.63;1.38;;;26.40;53.00;;;;;;5021236;28;20036;-63
2021/07/26 07:40:37;;;;;;;1.67;1.33;;;26.40;53.00;;;;;;5055377;28;20137;-64
2021/07/26 07:43:03;;;;;;;1.60;1.27;;;26.40;53.00;;;;;;5056232;28;20040;-63
2021/07/26 07:45:29;;;;;;;1.70;1.40;;;26.40;52.90;;;;;;5054937;28;20036;-62
2021/07/26 07:47:56;;;;;;;1.50;1.40;;;26.40;52.90;;;;;;5036272;28;20352;-62
2021/07/26 07:50:22;;;;;;;2.75;1.50;;;26.50;53.00;;;;;;5054757;28;20024;-63
2021/07/26 07:52:48;;;;;;;3.08;1.70;;;26.50;52.90;;;;;;5054530;28;20029;-63
2021/07/26 07:55:14;;;;;;;1.67;1.40;;;26.50;52.90;;;;;;5050486;28;20059;-64
2021/07/26 07:57:39;;;;;;;1.67;1.50;;;26.50;52.80;;;;;;5051942;28;20107;-62
2021/07/26 08:00:10;;;;;;;1.90;1.60;;;26.50;52.80;;;;;;5049206;28;20047;-63
2021/07/26 08:02:36;;;;;;;2.08;1.63;;;26.50;52.80;;;;;;5052086;28;20021;-63
2021/07/26 08:05:02;;;;;;;2.00;1.42;;;26.50;52.80;;;;;;5036092;28;20341;-63
2021/07/26 08:07:27;;;;;;;1.30;1.20;;;26.50;52.70;;;;;;5018713;28;20114;-64
2021/07/26 08:09:53;;;;;;;1.98;1.40;;;26.50;52.70;;;;;;5051785;28;20103;-63
2021/07/26 08:12:19;;;;;;;2.13;1.60;;;26.50;52.70;;;;;;5052556;28;20037;-63
2021/07/26 08:14:45;;;;;;;1.75;1.30;;;26.50;52.60;;;;;;5053629;28;20115;-62
2021/07/26 08:17:11;;;;;;;1.65;1.40;;;26.50;52.60;;;;;;5035707;28;20520;-63
2021/07/26 08:19:37;;;;;;;1.90;1.67;;;26.50;52.60;;;;;;5033427;28;20029;-64
2021/07/26 08:22:03;;;;;;;2.22;1.67;;;26.50;52.60;;;;;;5050409;28;20366;-61
2021/07/26 08:24:29;;;;;;;1.77;1.60;;;26.50;52.50;;;;;;5052607;28;20104;-62
2021/07/26 08:26:55;;;;;;;1.88;1.70;;;26.50;52.50;;;;;;5034684;28;20037;-63
2021/07/26 08:29:21;;;;;;;3.15;1.58;;;26.50;52.50;;;;;;5035202;28;20079;-63
2021/07/26 08:31:46;;;;;;;2.53;1.80;;;26.50;52.50;;;;;;5014884;28;20460;-62
2021/07/26 08:34:12;;;;;;;2.28;1.70;;;26.60;52.50;;;;;;5045481;28;20025;-62
2021/07/26 08:36:38;;;;;;;1.88;1.40;;;26.60;52.50;;;;;;5054256;28;20028;-61
2021/07/26 08:39:04;;;;;;;2.63;1.70;;;26.60;52.50;;;;;;5036822;28;20482;-62
2021/07/26 08:41:30;;;;;;;1.45;1.35;;;26.60;52.40;;;;;;5045021;28;20029;-60
2021/07/26 08:43:56;;;;;;;2.83;1.17;;;26.60;52.40;;;;;;5052333;28;20032;-60
2021/07/26 08:46:22;;;;;;;1.60;1.30;;;26.60;52.50;;;;;;5068226;28;20100;-63
2021/07/26 08:48:48;;;;;;;1.80;1.33;;;26.60;52.50;;;;;;5015943;28;20025;-63
2021/07/26 08:51:20;;;;;;;1.80;1.30;;;26.60;52.50;;;;;;5067123;28;20032;-60
2021/07/26 08:53:51;;;;;;;1.88;1.30;;;26.70;52.50;;;;;;5035594;28;20397;-61
2021/07/26 08:56:18;;;;;;;1.35;1.20;;;26.70;52.50;;;;;;5031668;28;20322;-65
2021/07/26 08:58:44;;;;;;;1.52;1.30;;;26.70;52.40;;;;;;5038749;28;20036;-65
2021/07/26 09:01:13;;;;;;;1.20;1.10;;;26.70;52.40;;;;;;5032616;28;20021;-63
2021/07/26 09:03:39;;;;;;;1.40;1.20;;;26.70;52.30;;;;;;5069761;28;20376;-62
2021/07/26 09:06:05;;;;;;;1.92;1.60;;;26.80;52.30;;;;;;5058212;28;20111;-63
2021/07/26 09:08:35;;;;;;;1.85;1.33;;;26.80;52.20;;;;;;5031559;28;20120;-64
2021/07/26 09:11:03;;;;;;;1.77;1.30;;;26.80;52.10;;;;;;5054230;28;20601;-61
2021/07/26 09:13:34;;;;;;;1.60;1.40;;;26.80;52.10;;;;;;5054607;28;20110;-63
2021/07/26 09:16:14;;;;;;;2.10;1.40;;;26.80;52.00;;;;;;5033250;28;20043;-62
2021/07/26 09:18:40;;;;;;;1.90;1.30;;;26.90;52.00;;;;;;5055017;28;20128;-61
2021/07/26 09:21:06;;;;;;;1.77;1.02;;;26.90;52.00;;;;;;5054302;28;20047;-61
2021/07/26 09:23:36;;;;;;;1.25;1.15;;;26.90;51.90;;;;;;5055210;28;20021;-62
2021/07/26 09:26:25;;;;;;;1.48;1.13;;;26.90;51.90;;;;;;5037049;28;20365;-61
2021/07/26 09:28:51;;;;;;;2.35;1.38;;;26.90;51.80;;;;;;5044012;28;20071;-62
2021/07/26 09:31:17;;;;;;;1.08;0.95;;;26.90;51.90;;;;;;5036589;28;20392;-61
2021/07/26 09:33:44;;;;;;;1.17;1.08;;;26.90;51.80;;;;;;5054070;28;20314;-61
2021/07/26 09:36:20;;;;;;;1.52;1.40;;;26.90;51.70;;;;;;5053363;28;20029;-63
2021/07/26 09:38:49;;;;;;;1.00;0.90;;;26.90;51.70;;;;;;5036611;28;20360;-61
2021/07/26 09:41:16;;;;;;;1.58;1.13;;;26.90;51.60;;;;;;5054682;28;20044;-61
2021/07/26 09:43:42;;;;;;;1.80;1.30;;;26.90;51.60;;;;;;5037227;28;20025;-62
2021/07/26 09:46:09;;;;;;;1.17;1.08;;;27.00;51.80;;;;;;5053793;28;20032;-61
2021/07/26 09:48:35;;;;;;;1.10;0.85;;;26.90;51.50;;;;;;5036471;28;20091;-62
2021/07/26 09:51:05;;;;;;;0.85;0.85;;;27.00;51.60;;;;;;5054056;28;20443;-60
2021/07/26 09:53:47;;;;;;;1.67;1.00;;;27.00;51.50;;;;;;5053941;28;20044;-61
2021/07/26 09:56:14;;;;;;;1.20;1.00;;;27.00;51.40;;;;;;5054367;28;20085;-61
2021/07/26 09:58:41;;;;;;;1.27;1.17;;;27.00;51.40;;;;;;5054090;28;20029;-61
2021/07/26 10:01:09;;;;;;;0.98;0.80;;;27.00;51.40;;;;;;5054533;28;20024;-64
2021/07/26 10:03:39;;;;;;;1.38;0.90;;;27.00;51.30;;;;;;5053594;28;20036;-61
2021/07/26 10:06:09;;;;;;;1.10;1.00;;;27.00;51.30;;;;;;5054222;28;20029;-62
2021/07/26 10:08:37;;;;;;;0.80;0.80;;;27.00;51.20;;;;;;5053402;28;20033;-62
2021/07/26 10:11:03;;;;;;;0.95;0.90;;;27.00;51.10;;;;;;5036134;28;20403;-62
2021/07/26 10:13:30;;;;;;;1.00;0.88;;;27.00;51.10;;;;;;5054165;28;20072;-62
2021/07/26 10:15:57;;;;;;;0.90;0.90;;;27.00;51.00;;;;;;5053262;28;20032;-63
2021/07/26 10:18:24;;;;;;;1.02;0.88;;;27.10;51.00;;;;;;5054121;28;20314;-61
2021/07/26 10:21:04;;;;;;;1.20;0.90;;;27.10;50.90;;;;;;5053638;28;20099;-61
2021/07/26 10:23:54;;;;;;;0.82;0.82;;;27.10;50.80;;;;;;5053844;28;20330;-61
2021/07/26 10:26:24;;;;;;;0.95;0.80;;;27.10;50.70;;;;;;5053461;28;20037;-61
2021/07/26 10:28:57;;;;;;;1.20;0.82;;;27.10;50.70;;;;;;5036170;28;20029;-61
2021/07/26 10:31:28;;;;;;;0.85;0.85;;;27.10;50.50;;;;;;5052921;28;20566;-61
2021/07/26 10:34:08;;;;;;;0.88;0.80;;;27.10;50.50;;;;;;5049366;28;20048;-62
2021/07/26 10:36:40;;;;;;;1.10;0.97;;;27.10;50.50;;;;;;5049759;28;20044;-60
2021/07/26 10:39:06;;;;;;;0.95;0.85;;;27.10;50.40;;;;;;5049066;28;20040;-61
2021/07/26 10:41:45;;;;;;;1.42;0.90;;;27.10;50.40;;;;;;5052261;28;20440;-61
2021/07/26 10:44:17;;;;;;;1.88;1.23;;;27.10;50.30;;;;;;5051976;28;20056;-62
2021/07/26 10:46:57;;;;;;;0.95;0.80;;;27.10;50.20;;;;;;5053577;28;20013;-63
2021/07/26 10:49:45;;;;;;;1.10;0.95;;;27.10;50.20;;;;;;5048763;28;20037;-61
2021/07/26 10:52:25;;;;;;;1.20;1.10;;;27.10;50.20;;;;;;5055698;28;20040;-61
2021/07/26 10:54:51;;;;;;;1.35;1.25;;;27.20;50.30;;;;;;5055933;28;20033;-61
2021/07/26 10:57:36;;;;;;;0.90;0.80;;;27.10;50.30;;;;;;5055104;28;20033;-63
2021/07/26 11:00:08;;;;;;;0.98;0.90;;;27.10;50.10;;;;;;5050985;28;20037;-62
2021/07/26 11:02:46;;;;;;;1.10;0.88;;;27.10;50.20;;;;;;5054305;28;20033;-62
2021/07/26 11:05:24;;;;;;;0.95;0.82;;;27.10;50.10;;;;;;5034766;28;20029;-62
2021/07/26 11:08:12;;;;;;;1.02;0.93;;;27.10;50.00;;;;;;5056307;28;20478;-62
2021/07/26 11:10:45;;;;;;;0.95;0.77;;;27.10;49.80;;;;;;5050403;28;20053;-60
2021/07/26 11:13:12;;;;;;;1.00;0.90;;;27.10;50.00;;;;;;5038562;28;20114;-63
2021/07/26 11:15:44;;;;;;;0.70;0.70;;;27.10;50.10;;;;;;5056911;28;20072;-64
2021/07/26 11:18:38;;;;;;;0.88;0.82;;;27.10;50.00;;;;;;5056851;28;20072;-64
2021/07/26 11:21:12;;;;;;;1.63;0.93;;;27.20;49.90;;;;;;5057129;28;20076;-65
2021/07/26 11:23:49;;;;;;;0.80;0.80;;;27.20;50.10;;;;;;5038407;28;20029;-65
2021/07/26 11:26:17;;;;;;;0.73;0.73;;;27.20;50.00;;;;;;5049235;28;20107;-63
2021/07/26 11:28:44;;;;;;;1.00;0.90;;;27.30;50.10;;;;;;5051656;28;20033;-63
2021/07/26 11:31:10;;;;;;;1.27;1.17;;;27.30;50.00;;;;;;5053778;28;20028;-63
2021/07/26 11:33:36;;;;;;;3.15;0.90;;;27.30;50.00;;;;;;5055051;28;20088;-62
2021/07/26 11:36:07;;;;;;;0.93;0.90;;;27.30;49.90;;;;;;5055155;28;20133;-63
2021/07/26 11:38:52;;;;;;;1.15;1.00;;;27.30;49.90;;;;;;5036670;28;20037;-63
2021/07/26 11:41:20;;;;;;;1.20;1.10;;;27.30;49.90;;;;;;5054049;28;20037;-65
2021/07/26 11:43:48;;;;;;;3.33;1.48;;;27.30;49.90;;;;;;5055545;28;20056;-63
2021/07/26 11:46:14;;;;;;;1.52;1.25;;;27.30;49.80;;;;;;5055406;28;20104;-62
2021/07/26 11:48:40;;;;;;;0.73;0.70;;;27.30;49.70;;;;;;5054983;28;20300;-62
2021/07/26 11:51:23;;;;;;;0.75;0.75;;;27.30;49.70;;;;;;5055372;28;20039;-63
2021/07/26 11:54:01;;;;;;;1.23;0.90;;;27.40;49.50;;;;;;5054701;28;20048;-62
2021/07/26 11:56:29;;;;;;;0.70;0.68;;;27.30;49.50;;;;;;5053502;28;20060;-62
2021/07/26 11:59:11;;;;;;;3.33;1.00;;;27.40;49.50;;;;;;5055061;28;20029;-64
2021/07/26 12:01:40;;;;;;;1.00;0.90;;;27.40;49.30;;;;;;5056108;28;20048;-62
2021/07/26 12:04:06;;;;;;;1.60;0.80;;;27.40;49.30;;;;;;5056659;28;20440;-63
2021/07/26 12:06:51;;;;;;;0.70;0.70;;;27.40;49.20;;;;;;5056081;28;20040;-62
2021/07/26 12:09:17;;;;;;;0.88;0.80;;;27.40;49.00;;;;;;5055964;28;20048;-64
2021/07/26 12:11:43;;;;;;;0.80;0.80;;;27.40;49.00;;;;;;5056596;28;20047;-62
2021/07/26 12:14:25;;;;;;;0.90;0.90;;;27.50;49.00;;;;;;5056272;28;20033;-63
2021/07/26 12:17:02;;;;;;;0.60;0.60;;;27.50;48.80;;;;;;5054912;28;20056;-63
2021/07/26 12:19:29;;;;;;;0.90;0.80;;;27.50;48.70;;;;;;5056085;28;20033;-63
2021/07/26 12:21:55;;;;;;;1.08;0.90;;;27.40;48.70;;;;;;5055112;28;20464;-63
2021/07/26 12:24:58;;;;;;;0.80;0.77;;;27.50;48.70;;;;;;5054563;28;20035;-63
2021/07/26 12:27:28;;;;;;;1.30;0.80;;;27.60;48.70;;;;;;5054596;28;20047;-62
2021/07/26 12:30:00;;;;;;;0.93;0.80;;;27.50;48.80;;;;;;5036201;28;20086;-62
2021/07/26 12:32:26;;;;;;;0.85;0.80;;;27.50;48.80;;;;;;5054693;28;20041;-61
2021/07/26 12:35:13;;;;;;;0.70;0.60;;;27.50;48.80;;;;;;5052351;28;20021;-63
2021/07/26 12:37:39;;;;;;;1.00;0.90;;;27.50;48.70;;;;;;5052295;28;20025;-63
2021/07/26 12:40:16;;;;;;;0.80;0.80;;;27.60;48.80;;;;;;5053969;28;20052;-64
2021/07/26 12:42:43;;;;;;;0.70;0.70;;;27.60;48.70;;;;;;5054459;28;20040;-58
2021/07/26 12:45:24;;;;;;;0.70;0.70;;;27.60;48.80;;;;;;5053714;28;20025;-62
2021/07/26 12:47:52;;;;;;;1.00;0.90;;;27.60;48.70;;;;;;5055854;28;20375;-61
2021/07/26 12:50:18;;;;;;;1.55;1.00;;;27.60;48.80;;;;;;5055278;28;20040;-65
2021/07/26 12:52:45;;;;;;;1.40;0.88;;;27.60;48.80;;;;;;5055233;28;21521;-62
2021/07/26 12:55:15;;;;;;;1.33;0.95;;;27.60;48.80;;;;;;5055707;28;20095;-62